Time;durP1;ratioP1;P1;durP2;ratioP2;P2;SDS_P1;SDS_P2;PMS_P1;PMS_P2;Temp;Humidity;BMP_temperature;BMP_pressure;BME280_temperature;BME280_humidity;BME280_pressure;Samples;Min_cycle;Max_cycle;Signal;HPM_P1;HPM_P2
2022/05/28 00:00:53;;;;;;;;;;;13.10;99.90;;;;;;5055860;28;20015;-75
2022/05/28 00:03:20;;;;;;;;;;;13.10;99.90;;;;;;5073920;28;20383;-78
2022/05/28 00:05:46;;;;;;;;;;;12.90;99.90;;;;;;5073789;28;19912;-76
2022/05/28 00:08:12;;;;;;;;;;;12.80;99.90;;;;;;5073718;28;19909;-77
2022/05/28 00:10:37;;;;;;;;;;;12.70;99.90;;;;;;5073553;28;19959;-77
2022/05/28 00:13:03;;;;;;;;;;;12.50;99.90;;;;;;5073557;28;20392;-75
2022/05/28 00:15:29;;;;;;;;;;;12.20;99.90;;;;;;5073634;28;19917;-76
2022/05/28 00:17:55;;;;;;;;;;;12.10;99.90;;;;;;5073586;28;19999;-77
2022/05/28 00:20:20;;;;;;;;;;;12.30;99.90;;;;;;5055601;28;19908;-75
2022/05/28 00:22:46;;;;;;;;;;;12.30;99.90;;;;;;5073547;28;19908;-75
2022/05/28 00:25:14;;;;;;;;;;;12.30;99.90;;;;;;5073544;28;19909;-76
2022/05/28 00:27:40;;;;;;;;;;;12.10;99.90;;;;;;5073681;28;19909;-75
2022/05/28 00:30:07;;;;;;;;;;;12.00;99.90;;;;;;5073392;28;19963;-76
2022/05/28 00:32:33;;;;;;;;;;;12.10;99.90;;;;;;5073516;28;19916;-75
2022/05/28 00:34:58;;;;;;;;;;;12.20;99.90;;;;;;5073871;28;20458;-74
2022/05/28 00:37:24;;;;;;;;;;;12.20;99.90;;;;;;5036404;28;19921;-76
2022/05/28 00:39:50;;;;;;;;;;;12.40;99.90;;;;;;5033407;28;19909;-76
2022/05/28 00:42:15;;;;;;;;;;;12.40;99.90;;;;;;5033429;28;19959;-75
2022/05/28 00:44:41;;;;;;;;;;;12.40;99.90;;;;;;5033397;28;19909;-77
2022/05/28 00:47:07;;;;;;;;;;;12.50;99.90;;;;;;5033590;28;19916;-76
2022/05/28 00:49:32;;;;;;;;;;;12.60;99.90;;;;;;5033318;28;19949;-76
2022/05/28 00:52:00;;;;;;;;;;;12.60;99.90;;;;;;5033362;28;20003;-75
2022/05/28 00:54:27;;;;;;;;;;;12.60;99.90;;;;;;5033357;28;19917;-74
2022/05/28 00:56:53;;;;;;;;;;;12.60;99.90;;;;;;5033291;28;20001;-75
2022/05/28 00:59:18;;;;;;;;;;;12.50;99.90;;;;;;5033691;28;19916;-74
2022/05/28 01:01:44;;;;;;;;;;;12.50;99.90;;;;;;5033233;28;19909;-75
2022/05/28 01:04:19;;;;;;;;;;;12.40;99.90;;;;;;5035183;28;20385;-75
2022/05/28 01:06:49;;;;;;;;;;;12.30;99.90;;;;;;5036997;28;19909;-76
2022/05/28 01:09:37;;;;;;;;;;;12.30;99.90;;;;;;5037176;28;19909;-76
2022/05/28 01:12:06;;;;;;;;;;;12.20;99.90;;;;;;5035493;28;19956;-76
2022/05/28 01:14:36;;;;;;;;;;;12.10;99.90;;;;;;5036980;28;20262;-76
2022/05/28 01:17:08;;;;;;;;;;;12.00;99.90;;;;;;5037085;28;19913;-77
2022/05/28 01:19:50;;;;;;;;;;;11.90;99.90;;;;;;5036782;28;19967;-74
2022/05/28 01:22:22;;;;;;;;;;;11.80;99.90;;;;;;5036847;28;19983;-75
2022/05/28 01:24:50;;;;;;;;;;;11.80;99.90;;;;;;5036854;28;20012;-77
2022/05/28 01:27:18;;;;;;;;;;;11.70;99.90;;;;;;5036638;28;19913;-77
2022/05/28 01:29:54;;;;;;;;;;;11.70;99.90;;;;;;5036756;28;19963;-75
2022/05/28 01:32:23;;;;;;;;;;;11.70;99.90;;;;;;5036805;28;19916;-75
2022/05/28 01:34:49;;;;;;;;;;;11.30;99.90;;;;;;5036595;28;20050;-76
2022/05/28 01:37:15;;;;;;;;;;;11.10;99.90;;;;;;5064473;28;19920;-74
2022/05/28 01:39:43;;;;;;;;;;;11.20;99.90;;;;;;5076377;28;19931;-76
2022/05/28 01:42:09;;;;;;;;;;;11.50;99.90;;;;;;5076464;28;19916;-76
2022/05/28 01:44:37;;;;;;;;;;;11.60;99.90;;;;;;5076312;28;19915;-75
2022/05/28 01:47:03;;;;;;;;;;;11.50;99.90;;;;;;5076240;28;19912;-74
2022/05/28 01:49:29;;;;;;;;;;;11.60;99.90;;;;;;5076147;28;19915;-76
2022/05/28 01:51:56;;;;;;;;;;;11.40;99.90;;;;;;5076163;28;20315;-77
2022/05/28 01:54:24;;;;;;;;;;;11.50;99.90;;;;;;5076294;28;19908;-76
2022/05/28 01:56:51;;;;;;;;;;;11.60;99.90;;;;;;5058106;28;19908;-76
2022/05/28 01:59:20;;;;;;;;;;;11.70;99.90;;;;;;5075956;28;19923;-75
2022/05/28 02:01:45;;;;;;;;;;;11.60;99.90;;;;;;5075958;28;19912;-76
2022/05/28 02:04:11;;;;;;;;;;;11.50;99.90;;;;;;5075907;28;20258;-76
2022/05/28 02:06:38;;;;;;;;;;;11.40;99.90;;;;;;5075849;28;19908;-76
2022/05/28 02:09:06;;;;;;;;;;;11.40;99.90;;;;;;5075835;28;20432;-75
2022/05/28 02:11:42;;;;;;;;;;;11.40;99.90;;;;;;5075825;28;19912;-75
2022/05/28 02:14:08;;;;;;;;;;;11.40;99.90;;;;;;5075729;28;19944;-76
2022/05/28 02:16:40;;;;;;;;;;;11.40;99.90;;;;;;5074683;28;19915;-76
2022/05/28 02:19:08;;;;;;;;;;;11.30;99.90;;;;;;5075604;28;19913;-75
2022/05/28 02:21:45;;;;;;;;;;;11.20;99.90;;;;;;5075545;28;20388;-77
2022/05/28 02:24:21;;;;;;;;;;;11.30;99.90;;;;;;5075656;28;19908;-76
2022/05/28 02:26:48;;;;;;;;;;;11.30;99.90;;;;;;5075628;28;20470;-78
2022/05/28 02:29:14;;;;;;;;;;;11.20;99.90;;;;;;5075417;28;20007;-76
2022/05/28 02:31:43;;;;;;;;;;;10.90;99.90;;;;;;5075012;28;19913;-77
2022/05/28 02:34:09;;;;;;;;;;;11.00;99.90;;;;;;5075613;28;19967;-77
2022/05/28 02:36:35;;;;;;;;;;;11.10;99.90;;;;;;5075133;28;19927;-76
2022/05/28 02:39:00;;;;;;;;;;;11.10;99.90;;;;;;5075225;28;20373;-76
2022/05/28 02:41:26;;;;;;;;;;;11.10;99.90;;;;;;5075106;28;20001;-75
2022/05/28 02:43:52;;;;;;;;;;;11.20;99.90;;;;;;5075286;28;20383;-75
2022/05/28 02:46:18;;;;;;;;;;;11.20;99.90;;;;;;5075599;28;19909;-75
2022/05/28 02:48:45;;;;;;;;;;;11.00;99.90;;;;;;5075026;28;19947;-76
2022/05/28 02:51:19;;;;;;;;;;;10.90;99.90;;;;;;5074923;28;19913;-76
2022/05/28 02:53:45;;;;;;;;;;;10.80;99.90;;;;;;5057009;28;19908;-77
2022/05/28 02:56:10;;;;;;;;;;;10.90;99.90;;;;;;5075055;28;19970;-76
2022/05/28 02:58:36;;;;;;;;;;;11.00;99.90;;;;;;5075067;28;20316;-76
2022/05/28 03:01:03;;;;;;;;;;;11.00;99.90;;;;;;5074785;28;19908;-75
2022/05/28 03:03:29;;;;;;;;;;;11.00;99.90;;;;;;5074986;28;19908;-75
2022/05/28 03:05:55;;;;;;;;;;;11.00;99.90;;;;;;5074684;28;19953;-75
2022/05/28 03:08:21;;;;;;;;;;;11.10;99.90;;;;;;5074979;28;20007;-76
2022/05/28 03:10:46;;;;;;;;;;;11.20;99.90;;;;;;5074462;28;20422;-78
2022/05/28 03:13:12;;;;;;;;;;;11.00;99.90;;;;;;5074545;28;20384;-75
2022/05/28 03:15:38;;;;;;;;;;;10.90;99.90;;;;;;5074594;28;20364;-74
2022/05/28 03:18:04;;;;;;;;;;;10.90;99.90;;;;;;5074451;28;19995;-76
2022/05/28 03:20:30;;;;;;;;;;;10.90;99.90;;;;;;5074643;28;19970;-77
2022/05/28 03:22:57;;;;;;;;;;;10.90;99.90;;;;;;5074346;28;19919;-76
2022/05/28 03:25:22;;;;;;;;;;;10.90;99.90;;;;;;5074315;28;20386;-77
2022/05/28 03:27:48;;;;;;;;;;;10.90;99.90;;;;;;5056024;28;19908;-77
2022/05/28 03:30:14;;;;;;;;;;;10.90;99.90;;;;;;5074157;28;20323;-75
2022/05/28 03:32:39;;;;;;;;;;;10.90;99.90;;;;;;5074186;28;20450;-76
2022/05/28 03:35:05;;;;;;;;;;;10.90;99.90;;;;;;5074435;28;20096;-76
2022/05/28 03:37:31;;;;;;;;;;;10.80;99.90;;;;;;5073741;28;19928;-75
2022/05/28 03:39:57;;;;;;;;;;;10.70;99.90;;;;;;5074066;28;19908;-76
2022/05/28 03:42:22;;;;;;;;;;;10.60;99.90;;;;;;5074078;28;20289;-73
2022/05/28 03:44:48;;;;;;;;;;;10.60;99.90;;;;;;5074159;28;20042;-76
2022/05/28 03:47:13;;;;;;;;;;;10.60;99.90;;;;;;5074249;28;19909;-76
2022/05/28 03:49:40;;;;;;;;;;;10.70;99.90;;;;;;5073840;28;19908;-76
2022/05/28 03:52:06;;;;;;;;;;;10.70;99.90;;;;;;5073907;28;20003;-77
2022/05/28 03:54:32;;;;;;;;;;;10.70;99.90;;;;;;5055923;28;19908;-74
2022/05/28 03:57:00;;;;;;;;;;;10.70;99.90;;;;;;5073820;28;19909;-75
2022/05/28 03:59:25;;;;;;;;;;;10.60;99.90;;;;;;5073829;28;19927;-78
2022/05/28 04:01:53;;;;;;;;;;;10.50;99.90;;;;;;5073755;28;19958;-75
2022/05/28 04:04:19;;;;;;;;;;;10.50;99.90;;;;;;5073770;28;19908;-74
2022/05/28 04:06:44;;;;;;;;;;;10.50;99.90;;;;;;5073753;28;19935;-77
2022/05/28 04:09:10;;;;;;;;;;;10.50;99.90;;;;;;5073784;28;20276;-76
2022/05/28 04:11:36;;;;;;;;;;;10.50;99.90;;;;;;5074048;28;19917;-77
2022/05/28 04:14:01;;;;;;;;;;;10.50;99.90;;;;;;5055581;28;19909;-76
2022/05/28 04:16:27;;;;;;;;;;;10.60;99.90;;;;;;5073590;28;19908;-76
2022/05/28 04:18:53;;;;;;;;;;;10.60;99.90;;;;;;5073312;28;19916;-75
2022/05/28 04:21:18;;;;;;;;;;;10.60;99.90;;;;;;5073622;28;20392;-76
2022/05/28 04:23:44;;;;;;;;;;;10.60;99.90;;;;;;5073505;28;19946;-75
2022/05/28 04:26:10;;;;;;;;;;;10.60;99.90;;;;;;5073507;28;19915;-75
2022/05/28 04:28:36;;;;;;;;;;;10.60;99.90;;;;;;5073489;28;19912;-75
2022/05/28 04:31:01;;;;;;;;;;;10.60;99.90;;;;;;5073505;28;20377;-76
2022/05/28 04:33:27;;;;;;;;;;;10.60;99.90;;;;;;5073434;28;19908;-75
2022/05/28 04:35:52;;;;;;;;;;;10.60;99.90;;;;;;5073465;28;19999;-76
2022/05/28 04:38:18;;;;;;;;;;;10.60;99.90;;;;;;5074257;28;20358;-76
2022/05/28 04:40:43;;;;;;;;;;;10.60;99.90;;;;;;5077511;28;19909;-75
2022/05/28 04:43:09;;;;;;;;;;;10.80;99.90;;;;;;5077479;28;19995;-73
2022/05/28 04:45:35;;;;;;;;;;;10.80;99.90;;;;;;5077388;28;19909;-76
2022/05/28 04:48:00;;;;;;;;;;;10.90;99.90;;;;;;5059345;28;19973;-75
2022/05/28 04:50:26;;;;;;;;;;;11.00;99.90;;;;;;5077188;28;19917;-76
2022/05/28 04:52:51;;;;;;;;;;;10.90;99.90;;;;;;5077439;28;19908;-76
2022/05/28 04:55:17;;;;;;;;;;;11.10;99.90;;;;;;5077238;28;19908;-76
2022/05/28 04:57:43;;;;;;;;;;;11.20;99.90;;;;;;5077566;28;20292;-75
2022/05/28 05:00:11;;;;;;;;;;;11.40;99.90;;;;;;5077261;28;20277;-76
2022/05/28 05:02:36;;;;;;;;;;;11.40;99.90;;;;;;5077233;28;19919;-76
2022/05/28 05:05:02;;;;;;;;;;;11.60;99.90;;;;;;5059002;28;19995;-76
2022/05/28 05:07:28;;;;;;;;;;;11.70;99.90;;;;;;5077033;28;19908;-76
2022/05/28 05:09:53;;;;;;;;;;;11.90;99.90;;;;;;5077100;28;19962;-77
2022/05/28 05:12:19;;;;;;;;;;;11.90;99.90;;;;;;5076828;28;19999;-76
2022/05/28 05:14:45;;;;;;;;;;;12.00;99.90;;;;;;5076967;28;19915;-76
2022/05/28 05:17:10;;;;;;;;;;;12.10;99.90;;;;;;5076735;28;19915;-77
2022/05/28 05:19:36;;;;;;;;;;;12.10;99.90;;;;;;5076736;28;19934;-75
2022/05/28 05:22:01;;;;;;;;;;;12.30;99.90;;;;;;5058742;28;20341;-76
2022/05/28 05:24:27;;;;;;;;;;;12.50;99.90;;;;;;5058663;28;19917;-76
2022/05/28 05:26:53;;;;;;;;;;;12.40;99.90;;;;;;5076591;28;19909;-75
2022/05/28 05:29:18;;;;;;;;;;;12.50;99.90;;;;;;5076546;28;19913;-76
2022/05/28 05:31:44;;;;;;;;;;;12.60;99.90;;;;;;5058472;28;19919;-76
2022/05/28 05:34:10;;;;;;;;;;;12.40;99.90;;;;;;5076439;28;19909;-75
2022/05/28 05:36:36;;;;;;;;;;;12.50;99.90;;;;;;5058164;28;20387;-75
2022/05/28 05:39:02;;;;;;;;;;;12.70;99.90;;;;;;5076642;28;19912;-76
2022/05/28 05:41:27;;;;;;;;;;;12.80;99.90;;;;;;5076346;28;20388;-76
2022/05/28 05:43:53;;;;;;;;;;;12.80;99.90;;;;;;5076315;28;19999;-77
2022/05/28 05:46:18;;;;;;;;;;;12.90;99.90;;;;;;5058263;28;19913;-76
2022/05/28 05:48:44;;;;;;;;;;;12.80;99.90;;;;;;5076213;28;19995;-77
2022/05/28 05:51:11;;;;;;;;;;;12.70;99.90;;;;;;5075846;28;19919;-77
2022/05/28 05:53:37;;;;;;;;;;;12.80;99.90;;;;;;5058207;28;19908;-75
2022/05/28 05:56:03;;;;;;;;;;;12.80;99.90;;;;;;5076324;28;20379;-75
2022/05/28 05:58:29;;;;;;;;;;;12.60;99.90;;;;;;5076090;28;20368;-76
2022/05/28 06:00:54;;;;;;;;;;;12.70;99.90;;;;;;5075988;28;19913;-75
2022/05/28 06:03:20;;;;;;;;;;;12.90;99.90;;;;;;5076143;28;19909;-76
2022/05/28 06:05:45;;;;;;;;;;;13.00;99.90;;;;;;5075902;28;19912;-77
2022/05/28 06:08:15;;;;;;;;;;;13.20;99.90;;;;;;5075841;28;20250;-75
2022/05/28 06:10:42;;;;;;;;;;;13.30;99.90;;;;;;5075930;28;19962;-74
2022/05/28 06:13:08;;;;;;;;;;;13.30;99.90;;;;;;5075734;28;19915;-75
2022/05/28 06:15:33;;;;;;;;;;;13.40;99.90;;;;;;5075780;28;19909;-76
2022/05/28 06:17:59;;;;;;;;;;;13.50;99.90;;;;;;5075657;28;19939;-78
2022/05/28 06:20:25;;;;;;;;;;;13.70;99.90;;;;;;5057645;28;19955;-75
2022/05/28 06:22:50;;;;;;;;;;;13.80;99.90;;;;;;5075621;28;20281;-76
2022/05/28 06:25:16;;;;;;;;;;;13.90;99.90;;;;;;5075743;28;20376;-76
2022/05/28 06:27:46;;;;;;;;;;;14.00;99.90;;;;;;5075447;28;20357;-74
2022/05/28 06:30:12;;;;;;;;;;;14.10;99.90;;;;;;5075448;28;20015;-77
2022/05/28 06:32:37;;;;;;;;;;;14.20;99.90;;;;;;5075361;28;19908;-74
2022/05/28 06:35:03;;;;;;;;;;;14.30;99.90;;;;;;5075738;28;19916;-77
2022/05/28 06:37:29;;;;;;;;;;;14.40;99.90;;;;;;5075143;28;20262;-75
2022/05/28 06:39:55;;;;;;;;;;;14.60;99.90;;;;;;5075201;28;19995;-77
2022/05/28 06:42:20;;;;;;;;;;;14.70;99.90;;;;;;5075193;28;19971;-76
2022/05/28 06:44:46;;;;;;;;;;;14.70;99.90;;;;;;5075152;28;19912;-77
2022/05/28 06:47:11;;;;;;;;;;;14.90;99.90;;;;;;5057152;28;20024;-76
2022/05/28 06:49:37;;;;;;;;;;;15.10;99.90;;;;;;5056990;28;19908;-75
2022/05/28 06:52:03;;;;;;;;;;;15.20;99.90;;;;;;5074968;28;19909;-75
2022/05/28 06:54:28;;;;;;;;;;;15.30;99.90;;;;;;5075172;28;19909;-75
2022/05/28 06:56:54;;;;;;;;;;;15.50;99.90;;;;;;5074896;28;20352;-74
2022/05/28 06:59:19;;;;;;;;;;;15.50;99.90;;;;;;5056726;28;19954;-77
2022/05/28 07:01:45;;;;;;;;;;;15.50;99.90;;;;;;5074209;28;19908;-76
2022/05/28 07:04:11;;;;;;;;;;;15.80;99.90;;;;;;5074775;28;19915;-77
2022/05/28 07:06:36;;;;;;;;;;;15.90;99.90;;;;;;5074691;28;20341;-76
2022/05/28 07:09:05;;;;;;;;;;;15.90;99.90;;;;;;5074711;28;19908;-76
2022/05/28 07:11:30;;;;;;;;;;;15.90;99.90;;;;;;5074495;28;19935;-76
2022/05/28 07:13:56;;;;;;;;;;;16.00;99.90;;;;;;5074945;28;19919;-78
2022/05/28 07:16:21;;;;;;;;;;;16.00;99.90;;;;;;5074674;28;19908;-75
2022/05/28 07:18:47;;;;;;;;;;;16.10;99.90;;;;;;5074444;28;19994;-75
2022/05/28 07:21:13;;;;;;;;;;;16.10;99.90;;;;;;5074425;28;19916;-76
2022/05/28 07:23:38;;;;;;;;;;;16.20;99.90;;;;;;5074479;28;19958;-76
2022/05/28 07:26:11;;;;;;;;;;;16.30;99.90;;;;;;5074337;28;19909;-75
2022/05/28 07:28:38;;;;;;;;;;;16.40;99.90;;;;;;5056299;28;19958;-76
2022/05/28 07:31:04;;;;;;;;;;;16.70;99.90;;;;;;5074191;28;19912;-76
2022/05/28 07:33:31;;;;;;;;;;;19.20;99.90;;;;;;5074185;28;19908;-76
2022/05/28 07:35:58;;;;;;;;;;;21.90;98.00;;;;;;5074312;28;20003;-76
2022/05/28 07:38:24;;;;;;;;;;;23.40;90.90;;;;;;5074248;28;20000;-77
2022/05/28 07:40:50;;;;;;;;;;;25.30;85.90;;;;;;5074071;28;19909;-76
2022/05/28 07:43:16;;;;;;;;;;;26.00;74.90;;;;;;5074276;28;20003;-76
2022/05/28 07:45:43;;;;;;;;;;;26.40;72.60;;;;;;5074063;28;19946;-77
2022/05/28 07:48:09;;;;;;;;;;;26.30;69.20;;;;;;5073974;28;19908;-76
2022/05/28 07:50:34;;;;;;;;;;;26.50;68.90;;;;;;5044768;28;19929;-75
2022/05/28 07:53:00;;;;;;;;;;;27.70;69.40;;;;;;5033598;28;19916;-76
2022/05/28 07:55:29;;;;;;;;;;;27.60;64.30;;;;;;5033255;28;20308;-77
2022/05/28 07:57:55;;;;;;;;;;;26.40;64.40;;;;;;5033471;28;20297;-78
2022/05/28 08:00:20;;;;;;;;;;;26.60;66.20;;;;;;5032116;28;19915;-76
2022/05/28 08:02:46;;;;;;;;;;;26.90;68.10;;;;;;5033484;28;19920;-76
2022/05/28 08:05:12;;;;;;;;;;;26.30;64.10;;;;;;5033565;28;19916;-77
2022/05/28 08:07:38;;;;;;;;;;;26.30;66.30;;;;;;5033371;28;19955;-76
2022/05/28 08:10:04;;;;;;;;;;;26.50;66.00;;;;;;5033507;28;19917;-77
2022/05/28 08:12:30;;;;;;;;;;;26.00;67.00;;;;;;5032958;28;19915;-77
2022/05/28 08:14:56;;;;;;;;;;;25.80;65.90;;;;;;5033365;28;20008;-76
2022/05/28 08:17:21;;;;;;;;;;;25.80;67.40;;;;;;5033280;28;19952;-78
2022/05/28 08:19:47;;;;;;;;;;;26.00;67.70;;;;;;5033242;28;20348;-78
2022/05/28 08:24:58;;;;;;;;;;;25.40;67.60;;;;;;5052908;28;20008;-77
2022/05/28 08:27:23;;;;;;;;;;;25.40;68.00;;;;;;5053242;28;19956;-76
2022/05/28 08:29:49;;;;;;;;;;;25.00;68.40;;;;;;5052937;28;19931;-77
2022/05/28 08:32:18;;;;;;;;;;;25.10;68.20;;;;;;5052595;28;20291;-76
2022/05/28 08:34:44;;;;;;;;;;;25.40;69.20;;;;;;5035088;28;19916;-77
2022/05/28 08:37:11;;;;;;;;;;;25.70;68.00;;;;;;5052922;28;20296;-77
2022/05/28 08:39:37;;;;;;;;;;;25.20;66.00;;;;;;5053083;28;19913;-75
2022/05/28 08:42:03;;;;;;;;;;;25.10;67.30;;;;;;5052610;28;20042;-76
2022/05/28 08:44:48;;;;;;;;;;;25.20;66.10;;;;;;5053029;28;19948;-76
2022/05/28 08:47:15;;;;;;;;;;;25.60;66.50;;;;;;5053247;28;19909;-76
2022/05/28 08:49:41;;;;;;;;;;;25.20;64.00;;;;;;5052925;28;19909;-77
2022/05/28 08:52:09;;;;;;;;;;;25.20;64.80;;;;;;5018791;28;20353;-76
2022/05/28 08:54:40;;;;;;;;;;;26.00;65.60;;;;;;5032910;28;20004;-76
2022/05/28 08:57:11;;;;;;;;;;;26.40;64.90;;;;;;5031740;28;19909;-75
2022/05/28 08:59:46;;;;;;;;;;;26.00;63.70;;;;;;5032980;28;19913;-75
2022/05/28 09:02:17;;;;;;;;;;;25.90;63.80;;;;;;5032491;28;19967;-77
2022/05/28 09:04:44;;;;;;;;;;;26.10;63.30;;;;;;5032988;28;19915;-76
2022/05/28 09:07:11;;;;;;;;;;;26.40;63.30;;;;;;5032618;28;19956;-75
2022/05/28 09:09:38;;;;;;;;;;;26.60;62.50;;;;;;5031570;28;19914;-76
2022/05/28 09:12:05;;;;;;;;;;;26.50;62.10;;;;;;5032541;28;20388;-76
2022/05/28 09:14:32;;;;;;;;;;;27.20;61.70;;;;;;5032942;28;19932;-77
2022/05/28 09:17:06;;;;;;;;;;;28.00;60.80;;;;;;5032791;28;19909;-76
2022/05/28 09:19:37;;;;;;;;;;;28.10;58.50;;;;;;5032605;28;19916;-76
2022/05/28 09:22:03;;;;;;;;;;;27.40;58.40;;;;;;5032332;28;19924;-76
2022/05/28 09:24:29;;;;;;;;;;;27.30;59.10;;;;;;5033675;28;19909;-77
2022/05/28 09:27:18;;;;;;;;;;;27.70;59.30;;;;;;5035063;28;20341;-78
2022/05/28 09:29:56;;;;;;;;;;;27.40;59.60;;;;;;5032462;28;19951;-76
2022/05/28 09:32:24;;;;;;;;;;;27.90;58.20;;;;;;5035881;28;20396;-76
2022/05/28 09:35:09;;;;;;;;;;;27.30;59.10;;;;;;5036223;28;19958;-75
2022/05/28 09:37:53;;;;;;;;;;;27.30;58.90;;;;;;5069458;28;19927;-77
2022/05/28 09:40:30;;;;;;;;;;;27.40;58.30;;;;;;5076029;28;19963;-76
2022/05/28 09:43:06;;;;;;;;;;;28.10;57.90;;;;;;5075010;28;20276;-77
2022/05/28 09:45:32;;;;;;;;;;;28.70;56.70;;;;;;5076072;28;19909;-75
2022/05/28 09:47:59;;;;;;;;;;;28.90;54.80;;;;;;5057730;28;19944;-75
2022/05/28 09:50:26;;;;;;;;;;;29.40;55.40;;;;;;5051668;28;19912;-77
2022/05/28 09:55:53;;;;;;;;;;;28.60;55.60;;;;;;5075919;28;19916;-76
2022/05/28 09:58:21;;;;;;;;;;;28.30;54.80;;;;;;5075784;28;19909;-76
2022/05/28 10:00:48;;;;;;;;;;;29.10;55.30;;;;;;5075269;28;19908;-77
2022/05/28 10:06:10;;;;;;;;;;;29.70;53.10;;;;;;5075239;28;19914;-75
2022/05/28 10:08:35;;;;;;;;;;;29.90;51.50;;;;;;5075685;28;19909;-76
2022/05/28 10:11:02;;;;;;;;;;;29.90;52.00;;;;;;5075065;28;19927;-76
2022/05/28 10:13:30;;;;;;;;;;;30.60;52.90;;;;;;5075463;28;19908;-77
2022/05/28 10:15:58;;;;;;;;;;;31.10;51.60;;;;;;5075457;28;19915;-76
2022/05/28 10:18:28;;;;;;;;;;;31.20;51.40;;;;;;5075200;28;19908;-76
2022/05/28 10:21:09;;;;;;;;;;;31.40;50.60;;;;;;5075354;28;19908;-77
2022/05/28 10:23:35;;;;;;;;;;;30.80;49.80;;;;;;5075349;28;20387;-76
2022/05/28 10:26:01;;;;;;;;;;;31.80;50.10;;;;;;5075208;28;19912;-78
2022/05/28 10:28:30;;;;;;;;;;;31.90;48.90;;;;;;5075186;28;20292;-76
2022/05/28 10:30:56;;;;;;;;;;;32.10;48.90;;;;;;5056636;28;19923;-77
2022/05/28 10:33:27;;;;;;;;;;;32.10;48.20;;;;;;5075028;28;19909;-77
2022/05/28 10:35:53;;;;;;;;;;;32.90;48.10;;;;;;5073908;28;19931;-76
2022/05/28 10:38:28;;;;;;;;;;;33.50;46.90;;;;;;5056644;28;20394;-77
2022/05/28 10:40:57;;;;;;;;;;;33.80;47.10;;;;;;5074723;28;19916;-79
2022/05/28 10:43:26;;;;;;;;;;;33.70;47.00;;;;;;5074573;28;19931;-77
2022/05/28 10:46:14;;;;;;;;;;;32.80;46.00;;;;;;5074877;28;20477;-77
2022/05/28 10:48:46;;;;;;;;;;;33.50;47.00;;;;;;5074732;28;19909;-76
2022/05/28 10:51:11;;;;;;;;;;;33.10;44.90;;;;;;5055076;28;20613;-77
2022/05/28 10:53:37;;;;;;;;;;;33.90;45.10;;;;;;5074659;28;20003;-77
2022/05/28 10:56:19;;;;;;;;;;;34.30;45.00;;;;;;5074684;28;19909;-75
2022/05/28 10:59:04;;;;;;;;;;;33.90;44.80;;;;;;5075074;28;19908;-79
2022/05/28 11:01:39;;;;;;;;;;;35.30;44.30;;;;;;5074871;28;19909;-78
2022/05/28 11:04:11;;;;;;;;;;;34.60;44.20;;;;;;5074950;28;19934;-80
2022/05/28 11:06:45;;;;;;;;;;;34.30;42.90;;;;;;5074802;28;19920;-78
2022/05/28 11:09:23;;;;;;;;;;;34.70;43.40;;;;;;5074672;28;19908;-79
2022/05/28 11:11:54;;;;;;;;;;;34.40;43.20;;;;;;5074822;28;19912;-78
2022/05/28 11:14:26;;;;;;;;;;;34.90;42.90;;;;;;5074649;28;19958;-76
2022/05/28 11:16:58;;;;;;;;;;;35.80;42.40;;;;;;5073062;28;19908;-77
2022/05/28 11:19:35;;;;;;;;;;;35.40;42.10;;;;;;5074756;28;20014;-78
2022/05/28 11:22:04;;;;;;;;;;;35.00;42.00;;;;;;5074444;28;20399;-76
2022/05/28 11:24:48;;;;;;;;;;;35.40;40.60;;;;;;5056492;28;19932;-76
2022/05/28 11:27:26;;;;;;;;;;;35.00;41.70;;;;;;5056345;28;20004;-76
2022/05/28 11:30:00;;;;;;;;;;;34.20;41.70;;;;;;5056262;28;19915;-76
2022/05/28 11:32:27;;;;;;;;;;;34.90;42.50;;;;;;5074524;28;19915;-78
2022/05/28 11:34:55;;;;;;;;;;;35.30;41.60;;;;;;5074271;28;19908;-76
2022/05/28 11:37:39;;;;;;;;;;;35.00;42.20;;;;;;5074123;28;19946;-77
2022/05/28 11:40:21;;;;;;;;;;;35.60;41.50;;;;;;5056163;28;19919;-76
2022/05/28 11:43:09;;;;;;;;;;;35.10;41.50;;;;;;5074155;28;19916;-76
2022/05/28 11:45:54;;;;;;;;;;;35.10;41.20;;;;;;5074216;28;19909;-77
2022/05/28 11:48:23;;;;;;;;;;;35.20;40.80;;;;;;5073745;28;19915;-78
2022/05/28 11:53:52;;;;;;;;;;;35.10;41.40;;;;;;5074152;28;19915;-77
2022/05/28 11:56:22;;;;;;;;;;;35.50;41.80;;;;;;5073945;28;19909;-77
2022/05/28 11:58:49;;;;;;;;;;;35.70;41.80;;;;;;5073894;28;19974;-77
2022/05/28 12:01:20;;;;;;;;;;;36.50;41.70;;;;;;5073793;28;19930;-77
2022/05/28 12:03:46;;;;;;;;;;;36.70;40.80;;;;;;5074110;28;19909;-76
2022/05/28 12:06:38;;;;;;;;;;;36.10;40.60;;;;;;5073750;28;19908;-76
2022/05/28 12:09:06;;;;;;;;;;;35.40;39.50;;;;;;5069509;28;20288;-76
2022/05/28 12:11:36;;;;;;;;;;;35.50;40.40;;;;;;5073530;28;19919;-78
2022/05/28 12:14:19;;;;;;;;;;;35.90;40.00;;;;;;5073694;28;19908;-76
2022/05/28 12:16:55;;;;;;;;;;;35.60;39.10;;;;;;5055707;28;19951;-77
2022/05/28 12:19:22;;;;;;;;;;;35.90;39.30;;;;;;5073670;28;19908;-77
2022/05/28 12:21:48;;;;;;;;;;;35.90;39.00;;;;;;5055601;28;20379;-79
2022/05/28 12:24:14;;;;;;;;;;;35.80;39.30;;;;;;5055599;28;19909;-78
2022/05/28 12:27:13;;;;;;;;;;;35.90;38.90;;;;;;5073698;28;19908;-77
2022/05/28 12:29:45;;;;;;;;;;;35.70;38.60;;;;;;5055274;28;19909;-77
2022/05/28 12:32:13;;;;;;;;;;;35.50;39.40;;;;;;5073950;28;19919;-76
2022/05/28 12:34:49;;;;;;;;;;;35.00;39.30;;;;;;5073630;28;19908;-77
2022/05/28 12:37:18;;;;;;;;;;;35.10;40.40;;;;;;5073489;28;19978;-77
2022/05/28 12:39:49;;;;;;;;;;;34.80;40.20;;;;;;5055478;28;19931;-76
2022/05/28 12:42:23;;;;;;;;;;;34.90;39.50;;;;;;5073681;28;19916;-77
2022/05/28 12:44:50;;;;;;;;;;;35.20;39.40;;;;;;5073598;28;19909;-78
2022/05/28 12:47:23;;;;;;;;;;;36.00;39.20;;;;;;5073350;28;19916;-76
2022/05/28 12:50:04;;;;;;;;;;;35.30;39.70;;;;;;5055066;28;20292;-78
2022/05/28 12:52:32;;;;;;;;;;;35.70;39.60;;;;;;5073459;28;19909;-76
2022/05/28 12:55:18;;;;;;;;;;;34.90;38.40;;;;;;5073274;28;20285;-77
2022/05/28 12:57:55;;;;;;;;;;;34.80;39.40;;;;;;5072639;28;19908;-75
2022/05/28 13:00:21;;;;;;;;;;;35.90;39.30;;;;;;5057300;28;20053;-76
2022/05/28 13:02:47;;;;;;;;;;;35.60;38.90;;;;;;5077126;28;20027;-78
2022/05/28 13:05:15;;;;;;;;;;;35.30;38.20;;;;;;5077300;28;20362;-78
2022/05/28 13:07:40;;;;;;;;;;;34.40;38.30;;;;;;5077172;28;19916;-76
2022/05/28 13:10:21;;;;;;;;;;;35.00;38.90;;;;;;5077035;28;19917;-78
2022/05/28 13:13:05;;;;;;;;;;;34.80;38.90;;;;;;5076863;28;19912;-78
2022/05/28 13:16:00;;;;;;;;;;;34.70;38.20;;;;;;5076843;28;19908;-75
2022/05/28 13:18:32;;;;;;;;;;;34.70;38.80;;;;;;5005127;28;19910;-76
2022/05/28 13:21:13;;;;;;;;;;;35.20;38.30;;;;;;5058587;28;20288;-75
2022/05/28 13:23:58;;;;;;;;;;;36.00;38.10;;;;;;5058724;28;19908;-77
2022/05/28 13:26:30;;;;;;;;;;;35.50;37.70;;;;;;5035556;28;19909;-76
2022/05/28 13:29:07;;;;;;;;;;;35.30;37.90;;;;;;5076645;28;19958;-77
2022/05/28 13:31:36;;;;;;;;;;;34.80;37.40;;;;;;5076578;28;20403;-79
2022/05/28 13:34:03;;;;;;;;;;;34.30;38.00;;;;;;5076643;28;20031;-77
2022/05/28 13:36:31;;;;;;;;;;;34.80;37.80;;;;;;5076296;28;19921;-77
2022/05/28 13:38:56;;;;;;;;;;;35.00;39.10;;;;;;5076424;28;20426;-76
2022/05/28 13:41:24;;;;;;;;;;;35.40;39.70;;;;;;5076423;28;19912;-77
2022/05/28 13:43:52;;;;;;;;;;;34.80;38.50;;;;;;5076485;28;20343;-78
2022/05/28 13:46:18;;;;;;;;;;;35.60;38.90;;;;;;5076277;28;20292;-79
2022/05/28 13:48:48;;;;;;;;;;;35.50;38.10;;;;;;5076253;28;19991;-78
2022/05/28 13:51:15;;;;;;;;;;;35.10;38.30;;;;;;5057921;28;19958;-77
2022/05/28 13:53:42;;;;;;;;;;;34.80;39.10;;;;;;5076360;28;19908;-77
2022/05/28 13:56:09;;;;;;;;;;;35.10;37.60;;;;;;5058240;28;19908;-76
2022/05/28 13:58:39;;;;;;;;;;;35.10;39.20;;;;;;5076140;28;19913;-77
2022/05/28 14:01:08;;;;;;;;;;;34.50;39.50;;;;;;5076089;28;19940;-77
2022/05/28 14:03:36;;;;;;;;;;;34.90;39.60;;;;;;5076057;28;19909;-78
2022/05/28 14:06:02;;;;;;;;;;;35.20;39.40;;;;;;5075975;28;19909;-77
2022/05/28 14:08:38;;;;;;;;;;;35.50;38.80;;;;;;5075916;28;19916;-76
2022/05/28 14:11:03;;;;;;;;;;;33.60;39.00;;;;;;5075612;28;19913;-77
2022/05/28 14:13:31;;;;;;;;;;;33.80;39.60;;;;;;5075841;28;19948;-76
2022/05/28 14:15:58;;;;;;;;;;;34.30;39.30;;;;;;5076187;28;20292;-77
2022/05/28 14:18:25;;;;;;;;;;;34.40;39.90;;;;;;5075791;28;20069;-76
2022/05/28 14:20:59;;;;;;;;;;;34.90;39.50;;;;;;5075659;28;20280;-77
2022/05/28 14:23:25;;;;;;;;;;;35.20;39.20;;;;;;5075715;28;20266;-79
2022/05/28 14:25:52;;;;;;;;;;;35.40;39.00;;;;;;5075806;28;19909;-78
2022/05/28 14:28:18;;;;;;;;;;;35.20;39.10;;;;;;5075879;28;19909;-77
2022/05/28 14:30:44;;;;;;;;;;;34.20;37.70;;;;;;5075458;28;20296;-79
2022/05/28 14:33:25;;;;;;;;;;;34.30;38.90;;;;;;5075471;28;19908;-77
2022/05/28 14:35:51;;;;;;;;;;;35.30;39.70;;;;;;5075249;28;20292;-79